createdAt,value
2023-02-11T00:00:21.862Z,102365.84
2023-02-11T00:02:48.492Z,102367.00
2023-02-11T00:05:15.627Z,102362.88
2023-02-11T00:07:42.257Z,102361.53
2023-02-11T00:10:09.390Z,102353.97
2023-02-11T00:12:37.388Z,102355.75
2023-02-11T00:15:06.008Z,102350.84
2023-02-11T00:17:32.682Z,102346.84
2023-02-11T00:19:59.422Z,102351.00
2023-02-11T00:22:26.184Z,102361.97
2023-02-11T00:24:52.842Z,102361.25
2023-02-11T00:27:19.589Z,102355.16
2023-02-11T00:29:46.348Z,102346.41
2023-02-11T00:32:13.020Z,102345.81
2023-02-11T00:34:39.703Z,102345.69
2023-02-11T00:37:06.727Z,102338.25
2023-02-11T00:39:33.400Z,102335.13
2023-02-11T00:42:00.229Z,102328.50
2023-02-11T00:44:26.895Z,102337.97
2023-02-11T00:46:53.537Z,102330.41
2023-02-11T00:49:20.296Z,102329.81
2023-02-11T00:51:46.992Z,102319.72
2023-02-11T00:54:13.646Z,102319.72
2023-02-11T00:56:40.271Z,102316.44
2023-02-11T00:59:06.942Z,102319.13
2023-02-11T01:01:34.565Z,102320.00
2023-02-11T01:04:01.298Z,102311.84
2023-02-11T01:06:27.935Z,102310.84
2023-02-11T01:08:54.663Z,102308.44
2023-02-11T01:11:21.840Z,102297.50
2023-02-11T01:13:49.870Z,102307.56
2023-02-11T01:16:18.292Z,102298.38
2023-02-11T01:18:46.062Z,102300.75
2023-02-11T01:21:12.772Z,102308.44
2023-02-11T01:23:39.469Z,102314.34
2023-02-11T01:26:06.150Z,102313.47
2023-02-11T01:28:33.464Z,102322.81
2023-02-11T01:31:03.635Z,102306.81
2023-02-11T01:33:30.511Z,102312.59
2023-02-11T01:36:01.463Z,102296.47
2023-02-11T01:38:28.174Z,102297.34
2023-02-11T01:40:58.181Z,102293.06
2023-02-11T01:43:27.248Z,102287.88
2023-02-11T01:46:04.463Z,102288.63
2023-02-11T01:48:38.698Z,102285.06
2023-02-11T01:51:20.870Z,102283.16
2023-02-11T01:54:06.958Z,102274.56
2023-02-11T01:56:55.956Z,102269.53
2023-02-11T01:59:26.809Z,102281.38
2023-02-11T02:01:59.306Z,102278.84
2023-02-11T02:04:31.546Z,102267.13
2023-02-11T02:07:06.354Z,102267.28
2023-02-11T02:09:39.623Z,102268.31
2023-02-11T02:12:06.479Z,102266.84
2023-02-11T02:14:33.180Z,102260.78
2023-02-11T02:16:59.877Z,102258.41
2023-02-11T02:20:09.057Z,102265.81
2023-02-11T02:22:56.220Z,102267.00
2023-02-11T02:25:48.117Z,102250.09
2023-02-11T02:28:44.968Z,102254.53
2023-02-11T02:31:50.648Z,102241.94
2023-02-11T02:34:29.106Z,102242.84
2023-02-11T02:37:04.446Z,102236.00
2023-02-11T02:39:35.588Z,102240.44
2023-02-11T02:42:03.440Z,102223.56
2023-02-11T02:44:31.005Z,102220.44
2023-02-11T02:46:57.852Z,102223.13
2023-02-11T02:49:24.578Z,102219.84
2023-02-11T02:52:01.863Z,102215.22
2023-02-11T02:54:41.176Z,102222.16
2023-02-11T02:57:21.139Z,102223.94
2023-02-11T03:00:07.576Z,102224.06
2023-02-11T03:02:36.988Z,102225.72
2023-02-11T03:05:12.207Z,102227.34
2023-02-11T03:07:49.067Z,102228.66
2023-02-11T03:10:21.620Z,102228.03
2023-02-11T03:12:49.507Z,102218.56
2023-02-11T03:15:18.224Z,102216.47
2023-02-11T03:17:48.546Z,102204.03
2023-02-11T03:20:18.711Z,102215.28
2023-02-11T03:22:50.777Z,102219.41
2023-02-11T03:25:17.915Z,102211.28
2023-02-11T03:27:52.093Z,102210.78
2023-02-11T03:30:30.580Z,102206.03
2023-02-11T03:33:34.606Z,102214.63
2023-02-11T03:36:07.623Z,102194.56
2023-02-11T03:38:38.250Z,102200.66
2023-02-11T03:41:07.768Z,102192.06
2023-02-11T03:43:42.813Z,102196.38
2023-02-11T03:46:11.516Z,102192.47
2023-02-11T03:48:42.327Z,102185.94
2023-02-11T03:51:12.382Z,102184.44
2023-02-11T03:53:42.924Z,102192.75
2023-02-11T03:56:15.271Z,102196.44
2023-02-11T03:58:44.468Z,102190.66
2023-02-11T04:01:11.536Z,102185.63
2023-02-11T04:03:38.336Z,102183.97
2023-02-11T04:06:05.238Z,102182.47
2023-02-11T04:08:32.807Z,102187.53
2023-02-11T04:10:59.504Z,102188.41
2023-02-11T04:13:26.330Z,102191.69
2023-02-11T04:15:53.415Z,102180.84
2023-02-11T04:18:20.424Z,102193.75
2023-02-11T04:20:48.055Z,102190.31
2023-02-11T04:23:14.724Z,102203.06
2023-02-11T04:25:42.361Z,102193.84
2023-02-11T04:28:09.075Z,102194.00
2023-02-11T04:30:35.720Z,102194.88
2023-02-11T04:33:02.370Z,102191.63
2023-02-11T04:35:29.025Z,102199.44
2023-02-11T04:37:55.643Z,102202.13
2023-02-11T04:40:22.334Z,102198.84
2023-02-11T04:42:48.962Z,102209.19
2023-02-11T04:45:15.671Z,102207.56
2023-02-11T04:47:42.314Z,102214.22
2023-02-11T04:50:09.208Z,102209.31
2023-02-11T04:52:35.874Z,102202.06
2023-02-11T04:55:02.508Z,102198.78
2023-02-11T04:57:29.133Z,102191.34
2023-02-11T04:59:55.817Z,102196.50
2023-02-11T05:02:22.794Z,102195.47
2023-02-11T05:04:49.443Z,102197.13
2023-02-11T05:07:16.238Z,102199.19
2023-02-11T05:09:42.884Z,102193.38
2023-02-11T05:12:09.675Z,102190.13
2023-02-11T05:14:36.339Z,102189.34
2023-02-11T05:17:03.079Z,102183.56
2023-02-11T05:19:31.882Z,102201.38
2023-02-11T05:22:02.999Z,102194.69
2023-02-11T05:24:32.140Z,102213.47
2023-02-11T05:26:59.192Z,102228.03
2023-02-11T05:29:26.031Z,102211.25
2023-02-11T05:31:53.089Z,102213.00
2023-02-11T05:34:19.767Z,102218.94
2023-02-11T05:36:46.409Z,102203.78
2023-02-11T05:39:13.067Z,102196.22
2023-02-11T05:41:39.756Z,102203.94
2023-02-11T05:44:06.410Z,102210.81
2023-02-11T05:46:33.106Z,102197.25
2023-02-11T05:48:59.840Z,102201.28
2023-02-11T05:51:26.518Z,102208.09
2023-02-11T05:53:53.311Z,102201.41
2023-02-11T05:56:20.013Z,102212.56
2023-02-11T05:58:46.832Z,102202.47
2023-02-11T06:01:13.520Z,102201.59
2023-02-11T06:03:40.340Z,102200.81
2023-02-11T06:06:11.855Z,102188.53
2023-02-11T06:08:39.499Z,102190.72
2023-02-11T06:11:06.217Z,102186.72
2023-02-11T06:13:32.988Z,102187.47
2023-02-11T06:16:01.370Z,102182.44
2023-02-11T06:18:28.839Z,102169.69
2023-02-11T06:20:55.576Z,102189.22
2023-02-11T06:23:22.598Z,102182.53
2023-02-11T06:25:50.100Z,102178.25
2023-02-11T06:28:17.076Z,102183.56
2023-02-11T06:30:43.873Z,102179.28
2023-02-11T06:33:10.633Z,102179.16
2023-02-11T06:35:40.335Z,102182.94
2023-02-11T06:38:07.168Z,102184.34
2023-02-11T06:40:33.846Z,102174.25
2023-02-11T06:43:00.500Z,102169.94
2023-02-11T06:45:27.155Z,102167.81
2023-02-11T06:47:53.811Z,102179.53
2023-02-11T06:50:20.536Z,102182.22
2023-02-11T06:52:47.387Z,102185.63
2023-02-11T06:55:14.285Z,102164.41
2023-02-11T06:57:40.996Z,102177.31
2023-02-11T07:00:08.440Z,102177.91
2023-02-11T07:02:35.844Z,102183.22
2023-02-11T07:05:02.332Z,102179.94
2023-02-11T07:07:28.828Z,102186.63
2023-02-11T07:09:55.303Z,102195.09
2023-02-11T07:12:21.776Z,102190.19
2023-02-11T07:14:48.245Z,102209.34
2023-02-11T07:17:14.802Z,102206.97
2023-02-11T07:19:41.352Z,102208.59
2023-02-11T07:22:07.811Z,102212.00
2023-02-11T07:24:34.285Z,102224.16
2023-02-11T07:27:00.767Z,102234.97
2023-02-11T07:29:27.403Z,102235.84
2023-02-11T07:31:53.985Z,102241.19
2023-02-11T07:34:20.572Z,102243.72
2023-02-11T07:36:48.850Z,102242.06
2023-02-11T07:39:15.436Z,102253.94
2023-02-11T07:41:44.389Z,102256.44
2023-02-11T07:44:10.886Z,102255.72
2023-02-11T07:46:37.372Z,102247.13
2023-02-11T07:49:04.211Z,102245.47
2023-02-11T07:51:31.377Z,102247.44
2023-02-11T07:53:59.202Z,102254.44
2023-02-11T07:56:26.498Z,102258.56
2023-02-11T07:58:53.029Z,102265.41
2023-02-11T08:01:24.887Z,102270.44
2023-02-11T08:03:51.827Z,102268.03
2023-02-11T08:06:20.330Z,102278.91
2023-02-11T08:08:47.147Z,102279.94
2023-02-11T08:11:18.618Z,102284.72
2023-02-11T08:13:45.443Z,102286.63
2023-02-11T08:16:23.632Z,102279.94
2023-02-11T08:18:51.256Z,102286.00
2023-02-11T08:21:19.164Z,102276.78
2023-02-11T08:23:46.433Z,102277.66
2023-02-11T08:26:22.407Z,102272.63
2023-02-11T08:28:51.019Z,102280.34
2023-02-11T08:31:26.599Z,102289.81
2023-02-11T08:33:54.650Z,102289.66
2023-02-11T08:36:23.920Z,102295.72
2023-02-11T08:38:50.385Z,102305.09
2023-02-11T08:41:17.722Z,102302.72
2023-02-11T08:43:45.390Z,102294.22
2023-02-11T08:46:14.659Z,102294.53
2023-02-11T08:48:41.139Z,102307.25
2023-02-11T08:51:09.697Z,102303.13
2023-02-11T08:53:36.780Z,102306.63
2023-02-11T08:56:03.314Z,102298.94
2023-02-11T08:58:29.865Z,102304.00
2023-02-11T09:00:56.432Z,102300.72
2023-02-11T09:03:23.115Z,102306.06
2023-02-11T09:05:53.026Z,102304.13
2023-02-11T09:08:20.716Z,102308.44
2023-02-11T09:10:47.691Z,102323.97
2023-02-11T09:13:14.536Z,102321.47
2023-02-11T09:15:45.193Z,102316.66
2023-02-11T09:18:12.304Z,102318.47
2023-02-11T09:20:38.928Z,102324.63
2023-02-11T09:23:05.575Z,102334.88
2023-02-11T09:25:32.240Z,102338.28
2023-02-11T09:27:58.924Z,102345.25
2023-02-11T09:30:25.616Z,102345.38
2023-02-11T09:32:52.243Z,102336.78
2023-02-11T09:35:19.050Z,102333.94
2023-02-11T09:37:45.727Z,102335.56
2023-02-11T09:40:14.558Z,102340.75
2023-02-11T09:43:11.622Z,102336.56
2023-02-11T09:45:38.468Z,102343.25
2023-02-11T09:48:12.432Z,102354.38
2023-02-11T09:50:44.150Z,102357.31
2023-02-11T09:53:24.052Z,102358.19
2023-02-11T09:56:00.197Z,102360.88
2023-02-11T09:58:30.523Z,102364.91
2023-02-11T10:01:25.137Z,102357.47
2023-02-11T10:04:07.058Z,102360.13
2023-02-11T10:06:41.492Z,102356.84
2023-02-11T10:09:44.663Z,102373.03
2023-02-11T10:12:44.592Z,102381.00
2023-02-11T10:15:49.522Z,102371.44
2023-02-11T10:18:28.088Z,102369.03
2023-02-11T10:21:09.120Z,102362.47
2023-02-11T10:23:39.669Z,102372.88
2023-02-11T10:26:13.200Z,102366.16
2023-02-11T10:28:50.203Z,102362.88
2023-02-11T10:31:27.554Z,102364.81
2023-02-11T10:34:00.411Z,102373.25
2023-02-11T10:36:35.189Z,102365.06
2023-02-11T10:39:16.549Z,102365.19
2023-02-11T10:42:09.446Z,102360.41
2023-02-11T10:44:41.520Z,102364.44
2023-02-11T10:47:18.757Z,102374.53
2023-02-11T10:49:48.999Z,102379.75
2023-02-11T10:52:27.793Z,102378.34
2023-02-11T10:55:14.321Z,102375.97
2023-02-11T10:57:53.814Z,102374.31
2023-02-11T11:00:42.368Z,102374.19
2023-02-11T11:03:27.321Z,102353.31
2023-02-11T11:06:01.892Z,102360.88
2023-02-11T11:08:51.734Z,102374.69
2023-02-11T11:11:23.985Z,102374.28
2023-02-11T11:13:53.398Z,102380.22
2023-02-11T11:16:21.981Z,102387.94
2023-02-11T11:19:13.600Z,102387.16
2023-02-11T11:21:49.171Z,102387.94
2023-02-11T11:24:44.263Z,102394.75
2023-02-11T11:27:19.243Z,102384.78
2023-02-11T11:29:49.988Z,102381.88
2023-02-11T11:32:32.686Z,102377.22
2023-02-11T11:35:03.463Z,102382.88
2023-02-11T11:37:33.028Z,102384.50
2023-02-11T11:40:22.047Z,102382.75
2023-02-11T11:43:04.216Z,102373.53
2023-02-11T11:45:30.937Z,102376.81
2023-02-11T11:48:15.940Z,102369.09
2023-02-11T11:50:44.667Z,102373.03
2023-02-11T11:53:23.063Z,102381.50
2023-02-11T11:56:09.772Z,102392.38
2023-02-11T11:58:36.688Z,102387.94
2023-02-11T12:01:09.288Z,102395.00
2023-02-11T12:04:14.112Z,102407.78
2023-02-11T12:07:13.182Z,102396.81
2023-02-11T12:10:23.649Z,102391.13
2023-02-11T12:13:07.014Z,102395.41
2023-02-11T12:15:40.994Z,102414.13
2023-02-11T12:18:32.868Z,102407.44
2023-02-11T12:21:14.898Z,102404.00
2023-02-11T12:23:59.972Z,102399.09
2023-02-11T12:26:38.252Z,102399.09
2023-02-11T12:29:24.027Z,102390.78
2023-02-11T12:32:17.563Z,102393.41
2023-02-11T12:35:19.504Z,102398.75
2023-02-11T12:38:18.577Z,102398.88
2023-02-11T12:41:10.132Z,102407.47
2023-02-11T12:43:42.235Z,102399.78
2023-02-11T12:46:33.798Z,102400.66
2023-02-11T12:49:22.495Z,102397.25
2023-02-11T12:52:11.316Z,102405.09
2023-02-11T12:54:56.273Z,102407.00
2023-02-11T12:57:26.603Z,102399.56
2023-02-11T13:00:00.552Z,102412.31
2023-02-11T13:02:36.958Z,102419.00
2023-02-11T13:05:28.499Z,102426.34
2023-02-11T13:08:02.844Z,102430.63
2023-02-11T13:10:36.032Z,102424.84
2023-02-11T13:13:18.787Z,102420.78
2023-02-11T13:16:03.895Z,102421.81
2023-02-11T13:18:40.075Z,102416.13
2023-02-11T13:21:16.210Z,102411.81
2023-02-11T13:23:59.763Z,102409.91
2023-02-11T13:26:40.566Z,102406.38
2023-02-11T13:29:33.149Z,102404.84
2023-02-11T13:32:09.540Z,102409.91
2023-02-11T13:34:42.334Z,102412.69
2023-02-11T13:37:29.378Z,102420.81
2023-02-11T13:40:18.944Z,102414.41
2023-02-11T13:42:56.149Z,102415.13
2023-02-11T13:45:38.431Z,102410.84
2023-02-11T13:48:15.394Z,102408.81
2023-02-11T13:50:51.815Z,102413.13
2023-02-11T13:53:19.194Z,102406.75
2023-02-11T13:55:48.968Z,102411.19
2023-02-11T13:58:17.324Z,102420.72
2023-02-11T14:00:51.214Z,102425.00
2023-02-11T14:03:50.937Z,102424.22
2023-02-11T14:06:43.371Z,102438.50
2023-02-11T14:09:10.089Z,102429.16
2023-02-11T14:12:20.719Z,102434.22
2023-02-11T14:15:07.731Z,102430.19
2023-02-11T14:17:34.966Z,102425.00
2023-02-11T14:20:04.574Z,102427.53
2023-02-11T14:22:47.174Z,102430.19
2023-02-11T14:25:25.277Z,102433.47
2023-02-11T14:28:25.762Z,102429.16
2023-02-11T14:31:03.671Z,102420.56
2023-02-11T14:33:51.468Z,102424.84
2023-02-11T14:36:30.493Z,102428.16
2023-02-11T14:39:13.714Z,102419.53
2023-02-11T14:41:52.926Z,102423.72
2023-02-11T14:44:25.148Z,102423.09
2023-02-11T14:46:53.653Z,102430.69
2023-02-11T14:49:30.775Z,102436.63
2023-02-11T14:52:17.003Z,102433.06
2023-02-11T14:54:44.812Z,102439.13
2023-02-11T14:57:15.827Z,102454.31
2023-02-11T15:00:02.357Z,102454.31
2023-02-11T15:02:37.514Z,102463.06
2023-02-11T15:05:26.483Z,102460.66
2023-02-11T15:07:59.352Z,102475.81
2023-02-11T15:10:32.790Z,102470.75
2023-02-11T15:13:02.000Z,102474.31
2023-02-11T15:15:29.446Z,102486.34
2023-02-11T15:17:59.389Z,102490.25
2023-02-11T15:20:29.030Z,102489.47
2023-02-11T15:22:59.888Z,102496.19
2023-02-11T15:25:28.058Z,102503.16
2023-02-11T15:27:57.041Z,102510.88
2023-02-11T15:30:23.725Z,102519.50
2023-02-11T15:32:58.681Z,102514.53
2023-02-11T15:35:28.482Z,102523.16
2023-02-11T15:37:56.521Z,102518.25
2023-02-11T15:40:32.220Z,102513.81
2023-02-11T15:43:09.978Z,102503.56
2023-02-11T15:45:40.218Z,102516.19
2023-02-11T15:48:12.536Z,102513.81
2023-02-11T15:50:41.249Z,102507.97
2023-02-11T15:53:26.448Z,102509.78
2023-02-11T15:56:01.595Z,102504.84
2023-02-11T15:58:28.540Z,102525.22
2023-02-11T16:00:59.604Z,102515.72
2023-02-11T16:03:32.758Z,102515.72
2023-02-11T16:06:20.653Z,102515.56
2023-02-11T16:08:58.918Z,102525.56
2023-02-11T16:11:30.389Z,102534.03
2023-02-11T16:13:59.044Z,102527.97
2023-02-11T16:16:31.862Z,102529.88
2023-02-11T16:19:06.274Z,102531.13
2023-02-11T16:21:38.829Z,102535.53
2023-02-11T16:24:07.861Z,102535.53
2023-02-11T16:26:39.272Z,102547.31
2023-02-11T16:29:11.347Z,102549.44
2023-02-11T16:31:41.163Z,102539.94
2023-02-11T16:34:18.434Z,102560.44
2023-02-11T16:36:46.110Z,102562.09
2023-02-11T16:39:13.480Z,102561.47
2023-02-11T16:41:40.596Z,102565.63
2023-02-11T16:44:07.257Z,102576.63
2023-02-11T16:46:34.340Z,102575.47
2023-02-11T16:49:11.440Z,102583.34
2023-02-11T16:51:39.933Z,102584.69
2023-02-11T16:54:06.636Z,102600.75
2023-02-11T16:56:33.254Z,102600.03
2023-02-11T16:59:00.595Z,102602.41
2023-02-11T17:01:27.535Z,102606.56
2023-02-11T17:03:54.312Z,102602.53
2023-02-11T17:06:20.971Z,102607.72
2023-02-11T17:08:47.635Z,102603.28
2023-02-11T17:11:16.658Z,102608.34
2023-02-11T17:13:44.026Z,102618.34
2023-02-11T17:16:18.120Z,102618.34
2023-02-11T17:18:45.355Z,102617.72
2023-02-11T17:21:15.523Z,102617.84
2023-02-11T17:23:42.636Z,102625.41
2023-02-11T17:26:09.328Z,102620.09
2023-02-11T17:28:36.036Z,102621.75
2023-02-11T17:31:07.631Z,102625.00
2023-02-11T17:33:36.187Z,102628.31
2023-02-11T17:36:07.776Z,102625.78
2023-02-11T17:38:35.326Z,102633.38
2023-02-11T17:41:03.063Z,102633.38
2023-02-11T17:43:29.725Z,102636.78
2023-02-11T17:45:56.585Z,102641.09
2023-02-11T17:48:23.975Z,102640.34
2023-02-11T17:50:50.994Z,102652.09
2023-02-11T17:53:17.632Z,102647.66
2023-02-11T17:55:44.260Z,102649.41
2023-02-11T17:58:10.891Z,102656.28
2023-02-11T18:00:37.559Z,102650.91
2023-02-11T18:03:04.381Z,102655.25
2023-02-11T18:05:37.546Z,102662.81
2023-02-11T18:08:06.341Z,102659.28
2023-02-11T18:10:33.755Z,102658.38
2023-02-11T18:13:01.568Z,102660.00
2023-02-11T18:15:28.282Z,102669.25
2023-02-11T18:17:55.516Z,102669.25
2023-02-11T18:20:22.193Z,102684.56
2023-02-11T18:22:48.828Z,102680.13
2023-02-11T18:25:16.044Z,102671.63
2023-02-11T18:27:43.099Z,102686.06
2023-02-11T18:30:19.505Z,102684.00
2023-02-11T18:32:46.286Z,102684.16
2023-02-11T18:35:15.150Z,102684.16
2023-02-11T18:37:43.116Z,102699.16
2023-02-11T18:40:10.950Z,102699.94
2023-02-11T18:42:37.944Z,102701.53
2023-02-11T18:45:12.118Z,102702.31
2023-02-11T18:47:40.054Z,102717.75
2023-02-11T18:50:11.159Z,102719.53
2023-02-11T18:52:38.610Z,102719.53
2023-02-11T18:55:06.109Z,102722.94
2023-02-11T18:57:32.781Z,102718.63
2023-02-11T18:59:59.432Z,102722.81
2023-02-11T19:02:26.272Z,102727.13
2023-02-11T19:04:52.913Z,102726.72
2023-02-11T19:07:19.585Z,102729.50
2023-02-11T19:09:46.217Z,102733.69
2023-02-11T19:12:12.882Z,102733.53
2023-02-11T19:14:39.531Z,102734.41
2023-02-11T19:17:07.570Z,102726.97
2023-02-11T19:19:35.539Z,102722.81
2023-02-11T19:22:03.506Z,102727.13
2023-02-11T19:24:30.556Z,102726.09
2023-02-11T19:27:00.393Z,102730.13
2023-02-11T19:29:27.616Z,102737.56
2023-02-11T19:31:54.595Z,102742.16
2023-02-11T19:34:21.592Z,102748.09
2023-02-11T19:36:49.506Z,102747.97
2023-02-11T19:39:16.807Z,102746.31
2023-02-11T19:41:43.483Z,102753.16
2023-02-11T19:44:10.434Z,102751.38
2023-02-11T19:46:40.731Z,102755.66
2023-02-11T19:49:07.692Z,102754.94
2023-02-11T19:51:36.822Z,102758.19
2023-02-11T19:54:03.671Z,102759.09
2023-02-11T19:56:30.280Z,102760.72
2023-02-11T19:58:57.324Z,102747.97
2023-02-11T20:01:25.580Z,102758.09
2023-02-11T20:03:54.870Z,102749.31
2023-02-11T20:06:27.973Z,102746.94
2023-02-11T20:09:00.074Z,102751.06
2023-02-11T20:11:29.645Z,102753.03
2023-02-11T20:13:57.021Z,102764.91
2023-02-11T20:16:40.683Z,102752.13
2023-02-11T20:19:16.693Z,102756.13
2023-02-11T20:21:46.701Z,102761.97
2023-02-11T20:24:13.992Z,102754.22
2023-02-11T20:26:42.261Z,102746.53
2023-02-11T20:29:09.663Z,102738.63
2023-02-11T20:31:36.676Z,102740.44
2023-02-11T20:34:03.419Z,102742.03
2023-02-11T20:36:34.058Z,102747.09
2023-02-11T20:39:02.202Z,102748.75
2023-02-11T20:41:34.070Z,102763.19
2023-02-11T20:44:04.122Z,102769.13
2023-02-11T20:46:33.128Z,102764.94
2023-02-11T20:49:01.017Z,102767.47
2023-02-11T20:51:31.440Z,102775.06
2023-02-11T20:53:58.443Z,102779.97
2023-02-11T20:56:28.794Z,102790.84
2023-02-11T20:58:57.598Z,102796.94
2023-02-11T21:01:27.091Z,102796.94
2023-02-11T21:03:59.276Z,102812.25
2023-02-11T21:06:30.951Z,102814.78
2023-02-11T21:08:57.623Z,102816.53
2023-02-11T21:11:24.277Z,102828.41
2023-02-11T21:13:51.039Z,102827.53
2023-02-11T21:16:22.498Z,102834.25
2023-02-11T21:18:50.320Z,102828.41
2023-02-11T21:21:18.602Z,102824.13
2023-02-11T21:23:45.923Z,102825.78
2023-02-11T21:26:15.078Z,102826.50
2023-02-11T21:28:41.873Z,102830.53
2023-02-11T21:31:09.680Z,102830.25
2023-02-11T21:33:36.400Z,102842.28
2023-02-11T21:36:04.394Z,102844.06
2023-02-11T21:38:31.154Z,102852.56
2023-02-11T21:41:05.547Z,102856.72
2023-02-11T21:43:32.590Z,102853.28
2023-02-11T21:45:59.538Z,102859.97
2023-02-11T21:48:26.684Z,102848.81
2023-02-11T21:50:53.877Z,102855.38
2023-02-11T21:53:20.500Z,102858.94
2023-02-11T21:55:47.166Z,102856.28
2023-02-11T21:58:14.253Z,102857.91
2023-02-11T22:00:40.984Z,102861.34
2023-02-11T22:03:07.835Z,102864.59
2023-02-11T22:05:34.446Z,102874.56
2023-02-11T22:08:01.103Z,102876.22
2023-02-11T22:10:27.777Z,102882.16
2023-02-11T22:12:54.413Z,102877.84
2023-02-11T22:15:21.097Z,102874.44
2023-02-11T22:17:47.749Z,102876.22
2023-02-11T22:20:16.777Z,102886.19
2023-02-11T22:22:43.436Z,102882.03
2023-02-11T22:25:10.140Z,102884.25
2023-02-11T22:27:36.835Z,102890.94
2023-02-11T22:30:04.624Z,102895.56
2023-02-11T22:32:31.262Z,102892.31
2023-02-11T22:34:57.904Z,102896.59
2023-02-11T22:37:24.508Z,102890.78
2023-02-11T22:39:51.154Z,102900.16
2023-02-11T22:42:17.818Z,102900.16
2023-02-11T22:44:44.771Z,102906.88
2023-02-11T22:47:11.437Z,102914.44
2023-02-11T22:49:39.451Z,102921.13
2023-02-11T22:52:06.096Z,102924.41
2023-02-11T22:54:32.772Z,102919.19
2023-02-11T22:56:59.420Z,102916.53
2023-02-11T22:59:26.033Z,102925.00
2023-02-11T23:01:52.784Z,102930.22
2023-02-11T23:04:19.542Z,102936.16
2023-02-11T23:06:47.694Z,102935.84
2023-02-11T23:09:14.435Z,102949.69
2023-02-11T23:11:41.513Z,102949.53
2023-02-11T23:14:10.007Z,102946.88
2023-02-11T23:16:36.718Z,102947.59
2023-02-11T23:19:06.406Z,102944.34
2023-02-11T23:21:36.594Z,102952.03
2023-02-11T23:24:10.141Z,102949.41
2023-02-11T23:26:39.201Z,102950.88
2023-02-11T23:29:06.195Z,102954.00
2023-02-11T23:31:37.408Z,102969.03
2023-02-11T23:34:04.554Z,102966.22
2023-02-11T23:36:32.256Z,102970.50
2023-02-11T23:38:58.977Z,102967.81
2023-02-11T23:41:26.134Z,102974.50
2023-02-11T23:43:55.157Z,102979.56
2023-02-11T23:46:23.803Z,102981.94
2023-02-11T23:48:51.501Z,102986.53
2023-02-11T23:51:18.765Z,102977.34
2023-02-11T23:53:46.144Z,102980.31
2023-02-11T23:56:19.908Z,102975.38
2023-02-11T23:58:51.454Z,102982.69
